Nearby METAR Reports

 

EGMC - Southend-On-Sea, United Kingdom
Distance from station: NE 10km
Updated: 19/09/2021 10:50
Few Clouds
Few Clouds
 Wind from varies
Wind: varies 2 mph , 4 km/h
Temperature: 19°C
Dew Point: 15°C
Humidity: 78%
Barometer: 1014 hPa
Clouds: Few Clouds
Visibility: 6 miles , 9 km
Cloud details: Few Clouds 457 m
2021/09/19 09:50 EGMC 190950Z VRB02KT 9000 FEW015 19/15 Q1014
EGLC - London City Airp, United Kingdom
Distance from station: W 37km
Updated: 19/09/2021 10:50
Clear
Clear
 Wind from varies
Wind: varies 3 mph , 6 km/h
Temperature: 20°C
Dew Point: 15°C
Humidity: 73%
Barometer: 1014 hPa
Clouds: Clear
Visibility: 4 miles , 6 km
2021/09/19 09:50 EGLC 190950Z AUTO VRB03KT 6000 NCD 20/15 Q1014
EGKB - Biggin Hill, United Kingdom
Distance from station: WSW 45km
Updated: 19/09/2021 10:50
Partly cloudy
Partly cloudy
 Wind from varies
Wind: varies 2 mph , 4 km/h
Temperature: 18°C
Dew Point: 14°C
Humidity: 78%
Barometer: 1014 hPa
Clouds: Partly cloudy
Visibility: 4 miles , 7 km
2021/09/19 09:50 EGKB 190950Z VRB02KT 7000 NSC 18/14 Q1014
 
EGSS - Stansted Airport, United Kingdom
Distance from station: NNW 48km
Updated: 19/09/2021 10:50
Partly cloudy
Partly cloudy
 Wind from SE
Wind: SE 5 mph , 7 km/h
Temperature: 20°C
Dew Point: 16°C
Humidity: 78%
Barometer: 1014 hPa
Clouds: Partly cloudy
Visibility: 4 miles , 7 km
2021/09/19 09:50 EGSS 190950Z 13004KT 070V200 7000 NSC 20/16 Q1014
EGKK - London/Gatwick A, United Kingdom
Distance from station: SW 67km
Updated: 19/09/2021 10:50
Partly cloudy
Partly cloudy
 Wind from NW
Wind: NW 6 mph , 9 km/h
Temperature: 17°C
Dew Point: 14°C
Humidity: 83%
Barometer: 1014 hPa
Clouds: Partly cloudy
Visibility: 4 miles , 6 km
2021/09/19 09:50 EGKK 190950Z 31005KT 220V330 6000 NSC 17/14 Q1014
EGMD - Lydd Airport, United Kingdom
Distance from station: SSE 67km
Updated: 19/09/2021 10:50
Partly cloudy
Partly cloudy
 Wind from ESE
Wind: ESE 7 mph , 11 km/h
Temperature: 20°C
Dew Point: 17°C
Humidity: 83%
Barometer: 1014 hPa
Clouds: Partly cloudy
Visibility: 4 miles , 7 km
2021/09/19 09:50 EGMD 190950Z 12006KT 7000 NSC 20/17 Q1014
 
EGWU - Northolt Raf, United Kingdom
Distance from station: W 69km
Updated: 19/09/2021 10:50
Mostly cloudy
Mostly cloudy
 Wind from NW
Wind: NW 8 mph , 13 km/h
Temperature: 17°C
Dew Point: 14°C
Humidity: 83%
Barometer: 1014 hPa
Clouds: Mostly cloudy
Visibility: 6 miles , 10 km
Cloud details: Few Clouds 366 m
Mostly cloudy 1524 m
Mostly cloudy 3353 m
2021/09/19 09:50 EGWU 190950Z 31007KT 9999 FEW012 BKN050 BKN110 17/14 Q1014 TEMPO 4000 SHRA SCT011 RMK BLU TEMPO GRN
EGLL - London/Heathrow, United Kingdom
Distance from station: W 72km
Updated: 19/09/2021 10:50
Light rain, Thunderstorm
Light rain, Thunderstorm
 Wind from NW
Wind: NW 7 mph , 11 km/h
Temperature: 17°C
Dew Point: 14°C
Humidity: 83%
Barometer: 1014 hPa
Summary: Light rain
Clouds: Thunderstorm
Visibility: 6 miles , 10 km
Cloud details: Mostly cloudy 366 m
2021/09/19 09:50 EGLL 190950Z AUTO 31006KT 9999 -RA BKN012/// //////CB 17/14 Q1014 TEMPO SCT012
EGUW - Wattisham Raf, United Kingdom
Distance from station: NNE 72km
Updated: 19/09/2021 09:50
Overcast
Overcast
 Wind from ESE
Wind: ESE 9 mph , 15 km/h
Temperature: 18°C
Dew Point: 15°C
Humidity: 83%
Barometer: 1013 hPa
Clouds: Overcast
Visibility: 6 miles , 10 km
Cloud details: Overcast 3048 m
2021/09/19 08:50 EGUW 190850Z AUTO 12008KT 9999 OVC100/// 18/15 Q1013
 
EGGW - Luton Airport, United Kingdom
Distance from station: WNW 76km
Updated: 19/09/2021 10:50
Partly cloudy
Partly cloudy
 Wind from NW
Wind: NW 8 mph , 13 km/h
Temperature: 16°C
Dew Point: 14°C
Humidity: 88%
Barometer: 1014 hPa
Clouds: Partly cloudy
Visibility: 6 miles , 10 km
Cloud details: Partly cloudy 244 m
2021/09/19 09:50 EGGW 190950Z AUTO 32007KT 300V360 9999 SCT008 16/14 Q1014
EGSC - Cambridge, United Kingdom
Distance from station: NNW 81km
Updated: 17/09/2021 16:20
NOT Current
Partly cloudy
Partly cloudy
 Wind from SW
Wind: SW 6 mph , 9 km/h
Temperature: 21°C
Dew Point: 12°C
Humidity: 57%
Barometer: 1013 hPa
Clouds: Partly cloudy
Visibility: 6 miles , 10 km
Cloud details: Few Clouds 823 m
Partly cloudy 1372 m
2021/09/17 15:20 EGSC 171520Z 22005KT 9999 FEW027 SCT045 21/12 Q1013